Fort Belvoir, Virginia
Current Conditions -  °F | °C
As of 4:58 PM on Saturday 20 Dec 2014 (Local Time) from KDAA Reporting Station
Overcast Overcast  
Wind Chill: 36°   Ceiling: 9000
Heat Index: 36°   Visibility: 10mi
Dew Point: 22°   Wind: 0mph
Humidity: 56%   Direction: NA
Pressure: 30.28"   Gusts: NA
Location:  38.69°N, 77.14°W
Report Text: KDAA 202158Z AUTO 00000KT 10SM OVC090 02/M06 A3028 RMK AO2 SLP258 T00241057
Loading
Personal Weather Stations






























Interactive Weather Map New forecast layout! Learn more

10-Day Weather Forecast

Advertisements
Track Severe Weather on mobile